Time;durP1;ratioP1;P1;durP2;ratioP2;P2;SDS_P1;SDS_P2;PMS_P1;PMS_P2;Temp;Humidity;BMP_temperature;BMP_pressure;BME280_temperature;BME280_humidity;BME280_pressure;Samples;Min_cycle;Max_cycle;Signal;HPM_P1;HPM_P2
2022/12/02 00:01:18;;;;;;;31.03;15.90;;;;;;;;;;5071042;28;20250;-82
2022/12/02 00:03:45;;;;;;;31.57;16.53;;;;;;;;;;5071680;28;20226;-82
2022/12/02 00:06:15;;;;;;;32.60;16.57;;;;;;;;;;5071232;28;20596;-83
2022/12/02 00:08:43;;;;;;;40.40;17.57;;;;;;;;;;5071334;28;20212;-83
2022/12/02 00:11:20;;;;;;;31.53;16.43;;;;;;;;;;5071075;28;20318;-82
2022/12/02 00:13:47;;;;;;;29.27;14.97;;;;;;;;;;5050406;28;20239;-82
2022/12/02 00:16:19;;;;;;;33.77;15.77;;;;;;;;;;5031075;28;20727;-82
2022/12/02 00:18:47;;;;;;;28.53;16.03;;;;;;;;;;5036482;28;20205;-83
2022/12/02 00:21:14;;;;;;;33.67;15.90;;;;;;;;;;5048631;28;20218;-82
2022/12/02 00:23:41;;;;;;;36.30;15.67;;;;;;;;;;5048387;28;20237;-83
2022/12/02 00:26:10;;;;;;;36.57;16.37;;;;;;;;;;5051955;28;20227;-83
2022/12/02 00:28:37;;;;;;;32.37;16.23;;;;;;;;;;5057209;28;20206;-83
2022/12/02 00:31:04;;;;;;;33.37;15.77;;;;;;;;;;5038088;28;20287;-82
2022/12/02 00:33:31;;;;;;;30.53;15.10;;;;;;;;;;5047048;28;20234;-83
2022/12/02 00:35:58;;;;;;;28.23;15.33;;;;;;;;;;5055761;28;20235;-82
2022/12/02 00:38:25;;;;;;;34.00;15.57;;;;;;;;;;5044927;28;20212;-82
2022/12/02 00:40:52;;;;;;;33.07;16.73;;;;;;;;;;5034666;28;20739;-82
2022/12/02 00:48:50;;;;;;;32.70;15.57;;;;;;;;;;5057432;28;20208;-83
2022/12/02 00:51:17;;;;;;;34.40;15.33;;;;;;;;;;5054110;28;20232;-82
2022/12/02 00:53:44;;;;;;;28.10;14.83;;;;;;;;;;5054904;28;20283;-82
2022/12/02 00:56:11;;;;;;;29.57;15.63;;;;;;;;;;5037842;28;20236;-82
2022/12/02 00:58:40;;;;;;;30.63;14.73;;;;;;;;;;5054661;28;20212;-82
2022/12/02 01:01:07;;;;;;;29.27;14.67;;;;;;;;;;5053908;28;20246;-82
2022/12/02 01:03:34;;;;;;;33.73;16.00;;;;;;;;;;5045735;28;20233;-83
2022/12/02 01:06:01;;;;;;;30.10;15.10;;;;;;;;;;5033996;28;20238;-82
2022/12/02 01:08:28;;;;;;;26.57;15.97;;;;;;;;;;5034380;28;20206;-82
2022/12/02 01:10:56;;;;;;;27.90;14.13;;;;;;;;;;5033754;28;20230;-82
2022/12/02 01:13:23;;;;;;;33.60;15.47;;;;;;;;;;5034319;28;20230;-83
2022/12/02 01:15:52;;;;;;;32.10;15.03;;;;;;;;;;5033598;28;20236;-82
2022/12/02 01:18:19;;;;;;;37.30;15.97;;;;;;;;;;5048051;28;20690;-82
2022/12/02 01:20:46;;;;;;;31.23;15.70;;;;;;;;;;5053510;28;20235;-83
2022/12/02 01:23:13;;;;;;;32.53;15.50;;;;;;;;;;5054121;28;20228;-83
2022/12/02 01:25:41;;;;;;;29.07;16.23;;;;;;;;;;5053677;28;20235;-83
2022/12/02 01:28:08;;;;;;;32.87;15.80;;;;;;;;;;5071608;28;20214;-82
2022/12/02 01:30:35;;;;;;;28.37;15.80;;;;;;;;;;5073285;28;20598;-82
2022/12/02 01:33:03;;;;;;;32.10;16.00;;;;;;;;;;5060256;28;20236;-82
2022/12/02 01:35:30;;;;;;;31.90;14.43;;;;;;;;;;5053052;28;20242;-82
2022/12/02 01:37:57;;;;;;;26.20;13.70;;;;;;;;;;5035280;28;20212;-82
2022/12/02 01:40:25;;;;;;;35.83;15.13;;;;;;;;;;5053061;28;20259;-82
2022/12/02 01:42:52;;;;;;;31.13;16.23;;;;;;;;;;5053861;28;20245;-82
2022/12/02 01:45:19;;;;;;;36.10;15.53;;;;;;;;;;5046971;28;20223;-83
2022/12/02 01:47:46;;;;;;;29.37;14.87;;;;;;;;;;5044903;28;20796;-83
2022/12/02 01:50:18;;;;;;;35.90;16.37;;;;;;;;;;5053410;28;20241;-83
2022/12/02 01:52:45;;;;;;;29.50;16.10;;;;;;;;;;5039861;28;20229;-82
2022/12/02 01:55:13;;;;;;;35.67;16.40;;;;;;;;;;5053161;28;20236;-83
2022/12/02 01:57:40;;;;;;;31.23;14.63;;;;;;;;;;5040521;28;20206;-82
2022/12/02 02:00:09;;;;;;;32.93;16.03;;;;;;;;;;5042229;28;20252;-82
2022/12/02 02:02:37;;;;;;;29.60;14.53;;;;;;;;;;5061144;28;20204;-83
2022/12/02 02:05:06;;;;;;;24.67;14.90;;;;;;;;;;5053175;28;20237;-82
2022/12/02 02:07:35;;;;;;;33.37;15.50;;;;;;;;;;5052857;28;20230;-82
2022/12/02 02:10:02;;;;;;;30.90;15.40;;;;;;;;;;5033409;28;20233;-83
2022/12/02 02:12:29;;;;;;;27.70;15.07;;;;;;;;;;5046886;28;20689;-82
2022/12/02 02:14:56;;;;;;;31.13;15.10;;;;;;;;;;5051154;28;20203;-83
2022/12/02 02:17:23;;;;;;;32.50;15.70;;;;;;;;;;5049377;28;20236;-83
2022/12/02 02:19:51;;;;;;;31.83;15.47;;;;;;;;;;5033110;28;20206;-83
2022/12/02 02:22:20;;;;;;;30.30;16.17;;;;;;;;;;5046186;28;20221;-82
2022/12/02 02:24:49;;;;;;;28.70;14.33;;;;;;;;;;5058115;28;20207;-83
2022/12/02 02:27:16;;;;;;;31.60;15.63;;;;;;;;;;5073367;28;20204;-82
2022/12/02 02:29:43;;;;;;;28.17;14.93;;;;;;;;;;5072574;28;20213;-82
2022/12/02 02:32:10;;;;;;;34.50;15.80;;;;;;;;;;5073558;28;20578;-82
2022/12/02 02:34:37;;;;;;;30.83;15.53;;;;;;;;;;5073226;28;20227;-82
2022/12/02 02:37:05;;;;;;;26.97;15.10;;;;;;;;;;5072691;28;20236;-83
2022/12/02 02:39:32;;;;;;;32.00;14.73;;;;;;;;;;5072919;28;20211;-83
2022/12/02 02:42:01;;;;;;;27.37;14.27;;;;;;;;;;5060122;28;20230;-82
2022/12/02 02:44:28;;;;;;;30.63;15.93;;;;;;;;;;5053011;28;20232;-82
2022/12/02 02:46:56;;;;;;;27.53;14.43;;;;;;;;;;5051026;28;20576;-82
2022/12/02 02:49:23;;;;;;;33.80;15.53;;;;;;;;;;5032799;28;20216;-82
2022/12/02 02:51:50;;;;;;;30.37;15.67;;;;;;;;;;5032583;28;20238;-83
2022/12/02 02:54:17;;;;;;;29.90;14.43;;;;;;;;;;5034490;28;20259;-82
2022/12/02 02:56:45;;;;;;;31.27;15.57;;;;;;;;;;5047999;28;20246;-82
2022/12/02 02:59:15;;;;;;;30.20;14.50;;;;;;;;;;5052026;28;20210;-82
2022/12/02 03:01:44;;;;;;;28.53;15.23;;;;;;;;;;5052126;28;20897;-82
2022/12/02 03:04:12;;;;;;;29.80;15.10;;;;;;;;;;5033679;28;20237;-83
2022/12/02 03:06:41;;;;;;;24.63;13.00;;;;;;;;;;5032368;28;20604;-82
2022/12/02 03:09:09;;;;;;;27.13;13.67;;;;;;;;;;5051844;28;20223;-82
2022/12/02 03:11:36;;;;;;;31.47;14.67;;;;;;;;;;5051583;28;20764;-83
2022/12/02 03:14:04;;;;;;;27.53;15.27;;;;;;;;;;5052556;28;20236;-83
2022/12/02 03:16:33;;;;;;;31.87;15.57;;;;;;;;;;5051365;28;20396;-83
2022/12/02 03:19:00;;;;;;;29.93;15.23;;;;;;;;;;5051433;28;20202;-83
2022/12/02 03:21:27;;;;;;;29.40;14.63;;;;;;;;;;5051871;28;20240;-83
2022/12/02 03:23:56;;;;;;;32.57;15.63;;;;;;;;;;5052385;28;20233;-83
2022/12/02 03:26:23;;;;;;;26.73;15.40;;;;;;;;;;5054960;28;20227;-83
2022/12/02 03:28:51;;;;;;;26.47;13.40;;;;;;;;;;5072258;28;20224;-83
2022/12/02 03:31:18;;;;;;;29.13;14.97;;;;;;;;;;5071520;28;20238;-83
2022/12/02 03:33:47;;;;;;;28.83;14.90;;;;;;;;;;5071984;28;20225;-84
2022/12/02 03:36:14;;;;;;;27.30;15.50;;;;;;;;;;5071527;28;20711;-83
2022/12/02 03:38:41;;;;;;;28.80;15.97;;;;;;;;;;5053144;28;20204;-83
2022/12/02 03:41:09;;;;;;;26.30;14.03;;;;;;;;;;5051427;28;20243;-83
2022/12/02 03:43:36;;;;;;;28.70;14.97;;;;;;;;;;5052096;28;20247;-83
2022/12/02 03:46:04;;;;;;;28.30;15.53;;;;;;;;;;5051530;28;20248;-83
2022/12/02 03:48:31;;;;;;;27.10;14.67;;;;;;;;;;5051724;28;20209;-83
2022/12/02 03:51:00;;;;;;;29.63;15.53;;;;;;;;;;5051131;28;20233;-84
2022/12/02 03:53:27;;;;;;;29.03;15.47;;;;;;;;;;5050952;28;20234;-83
2022/12/02 03:55:55;;;;;;;31.03;15.00;;;;;;;;;;5050361;28;20237;-83
2022/12/02 03:58:32;;;;;;;30.67;13.93;;;;;;;;;;5051477;28;20232;-83
2022/12/02 04:00:59;;;;;;;34.10;16.20;;;;;;;;;;5043215;28;20244;-83
2022/12/02 04:03:26;;;;;;;32.97;15.17;;;;;;;;;;5052699;28;20772;-84
2022/12/02 04:05:53;;;;;;;25.77;14.23;;;;;;;;;;5058254;28;20261;-84
2022/12/02 04:08:22;;;;;;;29.00;15.13;;;;;;;;;;5051379;28;20217;-84
2022/12/02 04:10:49;;;;;;;30.93;15.10;;;;;;;;;;5045869;28;20582;-84
2022/12/02 04:13:16;;;;;;;33.63;14.97;;;;;;;;;;5057544;28;20225;-84
2022/12/02 04:15:43;;;;;;;28.57;14.60;;;;;;;;;;5059951;28;20237;-83
2022/12/02 04:18:10;;;;;;;30.30;15.70;;;;;;;;;;5052043;28;20224;-83
2022/12/02 04:20:37;;;;;;;28.30;14.50;;;;;;;;;;5051663;28;20244;-84
2022/12/02 04:23:04;;;;;;;28.20;15.10;;;;;;;;;;5051860;28;20243;-83
2022/12/02 04:25:33;;;;;;;31.87;15.10;;;;;;;;;;5051569;28;20237;-83
2022/12/02 04:28:00;;;;;;;30.67;14.90;;;;;;;;;;5065841;28;20213;-83
2022/12/02 04:30:27;;;;;;;28.37;15.13;;;;;;;;;;5050110;28;20229;-83
2022/12/02 04:32:54;;;;;;;27.50;14.70;;;;;;;;;;5037120;28;20230;-83
2022/12/02 04:35:22;;;;;;;31.03;15.13;;;;;;;;;;5047585;28;20226;-85
2022/12/02 04:37:50;;;;;;;27.27;14.83;;;;;;;;;;5034463;28;20229;-83
2022/12/02 04:40:18;;;;;;;33.77;14.93;;;;;;;;;;5037890;28;20233;-86
2022/12/02 04:42:46;;;;;;;31.60;15.13;;;;;;;;;;5047313;28;20241;-86
2022/12/02 04:45:14;;;;;;;23.90;13.23;;;;;;;;;;5051290;28;20343;-87
2022/12/02 04:47:41;;;;;;;28.77;15.17;;;;;;;;;;5052116;28;20606;-88
2022/12/02 04:50:08;;;;;;;30.80;15.80;;;;;;;;;;5057059;28;20704;-87
2022/12/02 04:52:36;;;;;;;28.03;13.37;;;;;;;;;;5059941;28;20215;-86
2022/12/02 04:55:03;;;;;;;30.00;15.50;;;;;;;;;;5071120;28;20239;-86
2022/12/02 04:57:30;;;;;;;33.97;15.13;;;;;;;;;;5071407;28;20232;-83
2022/12/02 04:59:58;;;;;;;34.13;15.67;;;;;;;;;;5054232;28;20585;-83
2022/12/02 05:02:25;;;;;;;34.40;15.30;;;;;;;;;;5069455;28;20218;-83
2022/12/02 05:04:53;;;;;;;30.57;14.57;;;;;;;;;;5063248;28;20670;-83
2022/12/02 05:07:20;;;;;;;28.63;15.03;;;;;;;;;;5053266;28;20206;-84
2022/12/02 05:09:47;;;;;;;40.17;15.00;;;;;;;;;;5052839;28;20673;-87
2022/12/02 05:12:14;;;;;;;32.00;15.53;;;;;;;;;;5041692;28;20220;-85
2022/12/02 05:14:41;;;;;;;30.97;15.67;;;;;;;;;;5053521;28;20761;-83
2022/12/02 05:17:10;;;;;;;31.10;14.40;;;;;;;;;;5050505;28;20230;-85
2022/12/02 05:19:37;;;;;;;33.63;15.83;;;;;;;;;;5058873;28;20222;-83
2022/12/02 05:22:04;;;;;;;26.23;13.50;;;;;;;;;;5054278;28;20214;-85
2022/12/02 05:24:33;;;;;;;30.50;15.73;;;;;;;;;;5044389;28;20602;-86
2022/12/02 05:27:07;;;;;;;32.10;14.53;;;;;;;;;;5065548;28;20227;-85
2022/12/02 05:29:34;;;;;;;31.03;15.27;;;;;;;;;;5066064;28;20584;-86
2022/12/02 05:32:01;;;;;;;30.00;14.73;;;;;;;;;;5053476;28;20234;-84
2022/12/02 05:34:30;;;;;;;31.30;14.43;;;;;;;;;;5053838;28;20236;-82
2022/12/02 05:36:57;;;;;;;29.17;15.00;;;;;;;;;;5053931;28;20241;-84
2022/12/02 05:39:24;;;;;;;26.83;14.37;;;;;;;;;;5054239;28;20278;-84
2022/12/02 05:41:52;;;;;;;33.23;15.67;;;;;;;;;;5053556;28;20233;-82
2022/12/02 05:44:21;;;;;;;31.50;15.40;;;;;;;;;;5053290;28;20738;-84
2022/12/02 05:46:48;;;;;;;29.37;16.17;;;;;;;;;;5053403;28;20856;-83
2022/12/02 05:49:17;;;;;;;27.40;14.87;;;;;;;;;;5053531;28;20212;-83
2022/12/02 05:51:45;;;;;;;33.43;14.83;;;;;;;;;;5053584;28;20241;-84
2022/12/02 05:54:17;;;;;;;29.07;15.23;;;;;;;;;;5053387;28;20245;-83
2022/12/02 05:56:44;;;;;;;30.53;14.70;;;;;;;;;;5053073;28;20236;-84
2022/12/02 05:59:13;;;;;;;27.67;14.10;;;;;;;;;;5053540;28;20213;-83
2022/12/02 06:01:41;;;;;;;31.03;14.70;;;;;;;;;;5053450;28;20253;-83
2022/12/02 06:04:12;;;;;;;32.40;15.03;;;;;;;;;;5054033;28;20243;-83
2022/12/02 06:06:39;;;;;;;27.37;14.80;;;;;;;;;;5053573;28;20226;-83
2022/12/02 06:09:12;;;;;;;30.40;15.00;;;;;;;;;;5049533;28;20208;-83
2022/12/02 06:11:39;;;;;;;32.10;14.47;;;;;;;;;;5049418;28;20233;-83
2022/12/02 06:14:11;;;;;;;33.03;15.47;;;;;;;;;;5033754;28;20233;-81
2022/12/02 06:16:38;;;;;;;26.03;13.63;;;;;;;;;;5033198;28;20242;-82
2022/12/02 06:19:15;;;;;;;30.80;14.83;;;;;;;;;;5033571;28;20213;-81
2022/12/02 06:21:42;;;;;;;33.30;15.03;;;;;;;;;;5033296;28;20234;-82
2022/12/02 06:24:11;;;;;;;27.37;15.23;;;;;;;;;;5033542;28;20237;-82
2022/12/02 06:26:38;;;;;;;36.97;15.93;;;;;;;;;;5044590;28;20236;-81
2022/12/02 06:29:05;;;;;;;28.90;14.90;;;;;;;;;;5073457;28;20236;-83
2022/12/02 06:31:36;;;;;;;28.97;14.73;;;;;;;;;;5073020;28;20267;-82
2022/12/02 06:34:11;;;;;;;34.17;14.73;;;;;;;;;;5073256;28;20236;-82
2022/12/02 06:36:38;;;;;;;26.67;13.97;;;;;;;;;;5072792;28;20344;-83
2022/12/02 06:39:16;;;;;;;30.53;14.20;;;;;;;;;;5073431;28;20209;-83
2022/12/02 06:41:45;;;;;;;29.73;15.13;;;;;;;;;;5087068;22;20224;-81
2022/12/02 06:46:59;;;;;;;31.30;15.27;;;;;;;;;;5107525;28;20319;-81
2022/12/02 06:49:31;;;;;;;24.87;12.33;;;;;;;;;;5091681;28;20211;-83
2022/12/02 06:51:59;;;;;;;28.63;14.30;;;;;;;;;;5091464;28;20237;-83
2022/12/02 06:54:28;;;;;;;25.70;14.33;;;;;;;;;;5093130;28;20207;-83
2022/12/02 06:56:58;;;;;;;27.47;14.30;;;;;;;;;;5092210;28;20602;-81
2022/12/02 06:59:25;;;;;;;27.30;13.47;;;;;;;;;;5091530;28;20676;-81
2022/12/02 07:01:54;;;;;;;30.03;15.17;;;;;;;;;;5092233;28;20235;-81
2022/12/02 07:04:31;;;;;;;25.87;13.43;;;;;;;;;;5092519;28;20571;-81
2022/12/02 07:07:00;;;;;;;28.77;12.73;;;;;;;;;;5091339;28;20285;-81
2022/12/02 07:09:30;;;;;;;25.93;13.07;;;;;;;;;;5092315;28;20574;-81
2022/12/02 07:12:00;;;;;;;22.80;11.50;;;;;;;;;;5091797;28;20615;-81
2022/12/02 07:14:29;;;;;;;21.77;12.07;;;;;;;;;;5092033;28;20367;-81
2022/12/02 07:16:56;;;;;;;21.77;12.50;;;;;;;;;;5089456;28;20325;-81
2022/12/02 07:19:31;;;;;;;25.77;13.03;;;;;;;;;;5092362;28;20333;-81
2022/12/02 07:21:58;;;;;;;22.47;12.27;;;;;;;;;;5091612;28;20240;-81
2022/12/02 07:24:27;;;;;;;24.93;13.37;;;;;;;;;;5081652;28;20216;-80
2022/12/02 07:26:55;;;;;;;18.43;11.47;;;;;;;;;;5088833;28;20234;-81
2022/12/02 07:29:29;;;;;;;24.03;12.27;;;;;;;;;;5092173;28;20203;-80
2022/12/02 07:31:56;;;;;;;22.03;13.13;;;;;;;;;;5091555;28;20763;-81
2022/12/02 07:34:23;;;;;;;20.83;13.73;;;;;;;;;;5092012;28;20245;-80
2022/12/02 07:36:50;;;;;;;20.80;12.63;;;;;;;;;;5091505;28;20732;-82
2022/12/02 07:39:18;;;;;;;22.83;12.23;;;;;;;;;;5091819;28;20591;-83
2022/12/02 07:41:45;;;;;;;18.53;11.47;;;;;;;;;;5091269;28;20654;-83
2022/12/02 07:44:12;;;;;;;20.30;12.60;;;;;;;;;;5091648;28;20234;-83
2022/12/02 07:46:40;;;;;;;20.87;12.30;;;;;;;;;;5074531;28;20236;-83
2022/12/02 07:49:07;;;;;;;19.50;11.97;;;;;;;;;;5071391;28;20215;-83
2022/12/02 07:51:35;;;;;;;23.33;13.10;;;;;;;;;;5070890;28;20311;-82
2022/12/02 07:54:02;;;;;;;18.67;11.13;;;;;;;;;;5072764;28;20202;-87
2022/12/02 07:56:29;;;;;;;19.50;10.87;;;;;;;;;;5078692;28;20712;-82
2022/12/02 07:58:56;;;;;;;20.93;12.77;;;;;;;;;;5087720;28;20212;-83
2022/12/02 08:01:23;;;;;;;21.00;11.30;;;;;;;;;;5091258;28;20243;-83
2022/12/02 08:03:52;;;;;;;19.37;11.37;;;;;;;;;;5091928;28;20237;-82
2022/12/02 08:06:20;;;;;;;18.13;10.40;;;;;;;;;;5091253;28;20232;-83
2022/12/02 08:08:47;;;;;;;17.37;10.90;;;;;;;;;;5090615;28;20204;-83
2022/12/02 08:11:14;;;;;;;19.53;12.63;;;;;;;;;;5090440;28;20232;-83
2022/12/02 08:13:41;;;;;;;18.87;10.63;;;;;;;;;;5091626;28;20215;-83
2022/12/02 08:16:10;;;;;;;16.53;10.83;;;;;;;;;;5090579;28;20235;-83
2022/12/02 08:18:37;;;;;;;17.53;10.77;;;;;;;;;;5091195;28;20829;-82
2022/12/02 08:21:05;;;;;;;17.87;11.00;;;;;;;;;;5091063;28;20236;-80
2022/12/02 08:23:33;;;;;;;14.97;10.60;;;;;;;;;;5091743;28;20210;-80
2022/12/02 08:26:00;;;;;;;18.27;10.37;;;;;;;;;;5091579;28;20239;-82
2022/12/02 08:28:27;;;;;;;15.37;9.37;;;;;;;;;;5107717;28;20195;-83
2022/12/02 08:30:54;;;;;;;17.97;10.57;;;;;;;;;;5110872;28;20248;-82
2022/12/02 08:33:21;;;;;;;15.33;10.03;;;;;;;;;;5111588;28;20223;-81
2022/12/02 08:35:48;;;;;;;18.00;10.63;;;;;;;;;;5111549;28;20233;-82
2022/12/02 08:38:17;;;;;;;16.97;10.23;;;;;;;;;;5090812;28;20221;-83
2022/12/02 08:40:44;;;;;;;16.73;10.50;;;;;;;;;;5091006;28;20245;-82
2022/12/02 08:43:11;;;;;;;18.63;10.43;;;;;;;;;;5099476;28;20250;-82
2022/12/02 08:45:38;;;;;;;16.90;10.57;;;;;;;;;;5111477;28;20232;-81
2022/12/02 08:48:05;;;;;;;15.63;10.60;;;;;;;;;;5111278;28;20217;-81
2022/12/02 08:50:32;;;;;;;12.77;9.87;;;;;;;;;;5111397;28;20235;-81
2022/12/02 08:52:59;;;;;;;17.27;10.33;;;;;;;;;;5111422;28;20225;-81
2022/12/02 08:55:28;;;;;;;17.33;11.30;;;;;;;;;;5111819;28;20226;-81
2022/12/02 08:57:56;;;;;;;17.83;10.37;;;;;;;;;;5115164;28;20685;-79
2022/12/02 09:00:23;;;;;;;17.33;10.90;;;;;;;;;;5115173;28;20225;-79
2022/12/02 09:02:50;;;;;;;14.97;10.03;;;;;;;;;;5115785;28;20318;-80
2022/12/02 09:05:18;;;;;;;17.13;10.70;;;;;;;;;;5115032;28;20258;-81
2022/12/02 09:07:45;;;;;;;16.27;10.63;;;;;;;;;;5115307;28;20211;-81
2022/12/02 09:10:13;;;;;;;14.47;9.50;;;;;;;;;;5103408;28;20786;-80
2022/12/02 09:12:41;;;;;;;22.07;11.10;;;;;;;;;;5083423;28;20221;-81
2022/12/02 09:15:08;;;;;;;16.70;10.77;;;;;;;;;;5076164;28;20229;-82
2022/12/02 09:17:36;;;;;;;18.13;10.67;;;;;;;;;;5093729;28;20228;-81
2022/12/02 09:20:03;;;;;;;15.50;10.07;;;;;;;;;;5084800;28;20307;-82
2022/12/02 09:22:30;;;;;;;15.00;9.93;;;;;;;;;;5094689;28;20238;-82
2022/12/02 09:24:57;;;;;;;15.67;9.87;;;;;;;;;;5098253;28;20948;-81
2022/12/02 09:27:24;;;;;;;16.80;10.20;;;;;;;;;;5086927;28;20200;-81
2022/12/02 09:29:53;;;;;;;14.87;9.53;;;;;;;;;;5099488;28;20206;-81
2022/12/02 09:32:20;;;;;;;15.17;9.27;;;;;;;;;;5082538;28;20239;-82
2022/12/02 09:34:47;;;;;;;15.40;10.83;;;;;;;;;;5073627;28;20691;-82
2022/12/02 09:37:14;;;;;;;17.67;10.77;;;;;;;;;;5081711;28;20201;-81
2022/12/02 09:39:41;;;;;;;17.90;10.87;;;;;;;;;;5093536;28;20285;-81
2022/12/02 09:42:09;;;;;;;16.83;10.67;;;;;;;;;;5094234;28;20235;-82
2022/12/02 09:44:37;;;;;;;16.10;11.27;;;;;;;;;;5094636;28;20208;-81
2022/12/02 09:47:05;;;;;;;15.53;10.33;;;;;;;;;;5094212;28;20242;-82
2022/12/02 09:49:33;;;;;;;14.70;9.97;;;;;;;;;;5094073;28;20675;-81
2022/12/02 09:52:02;;;;;;;14.27;8.90;;;;;;;;;;5093446;28;20231;-81
2022/12/02 09:54:29;;;;;;;12.63;8.50;;;;;;;;;;5094419;28;20208;-82
2022/12/02 09:56:56;;;;;;;14.60;9.57;;;;;;;;;;5093222;28;20236;-82
2022/12/02 09:59:24;;;;;;;15.00;10.23;;;;;;;;;;5094109;28;20221;-81
2022/12/02 10:01:51;;;;;;;15.73;10.83;;;;;;;;;;5093346;28;20230;-82
2022/12/02 10:04:21;;;;;;;15.50;9.90;;;;;;;;;;5094300;28;20207;-82
2022/12/02 10:06:48;;;;;;;14.70;10.30;;;;;;;;;;5092992;28;20232;-82
2022/12/02 10:09:17;;;;;;;15.93;10.13;;;;;;;;;;5093619;28;20695;-82
2022/12/02 10:11:44;;;;;;;13.63;8.87;;;;;;;;;;5093174;28;20239;-82
2022/12/02 10:14:12;;;;;;;14.37;8.73;;;;;;;;;;5093840;28;20671;-82
2022/12/02 10:16:39;;;;;;;14.37;9.90;;;;;;;;;;5093231;28;20246;-82
2022/12/02 10:19:07;;;;;;;14.07;9.87;;;;;;;;;;5093089;28;20710;-82
2022/12/02 10:21:35;;;;;;;13.30;8.47;;;;;;;;;;5092328;28;20235;-82
2022/12/02 10:24:04;;;;;;;13.97;8.97;;;;;;;;;;5093561;28;20582;-82
2022/12/02 10:26:42;;;;;;;13.43;8.97;;;;;;;;;;5097990;28;20228;-82
2022/12/02 10:29:10;;;;;;;14.40;9.70;;;;;;;;;;5104833;28;20651;-82
2022/12/02 10:31:37;;;;;;;15.27;9.40;;;;;;;;;;5107000;28;20227;-82
2022/12/02 10:34:06;;;;;;;14.63;10.13;;;;;;;;;;5114019;28;20204;-82
2022/12/02 10:36:34;;;;;;;14.30;9.47;;;;;;;;;;5087256;28;20300;-82
2022/12/02 10:39:22;;;;;;;16.03;8.80;;;;;;;;;;5101449;28;20224;-82
2022/12/02 10:41:49;;;;;;;15.63;9.83;;;;;;;;;;5092588;28;20764;-82
2022/12/02 10:44:17;;;;;;;14.63;8.87;;;;;;;;;;5093090;28;20219;-82
2022/12/02 10:46:45;;;;;;;15.73;10.13;;;;;;;;;;5093180;28;20259;-82
2022/12/02 10:49:16;;;;;;;14.03;9.87;;;;;;;;;;5113274;28;20219;-82
2022/12/02 10:51:46;;;;;;;14.23;9.37;;;;;;;;;;5088687;28;20237;-82
2022/12/02 10:54:23;;;;;;;14.97;9.90;;;;;;;;;;5080429;28;20205;-82
2022/12/02 10:56:51;;;;;;;16.20;9.67;;;;;;;;;;5090792;28;20231;-83
2022/12/02 10:59:18;;;;;;;15.20;10.23;;;;;;;;;;5085138;28;20233;-83
2022/12/02 11:01:46;;;;;;;12.63;9.63;;;;;;;;;;5093155;28;20359;-83
2022/12/02 11:04:13;;;;;;;13.90;9.67;;;;;;;;;;5113402;28;20207;-82
2022/12/02 11:06:41;;;;;;;12.57;8.67;;;;;;;;;;5090965;28;20232;-83
2022/12/02 11:09:08;;;;;;;13.87;9.20;;;;;;;;;;5080117;28;20200;-83
2022/12/02 11:11:40;;;;;;;14.27;9.13;;;;;;;;;;5081946;28;20656;-83
2022/12/02 11:14:11;;;;;;;15.53;10.20;;;;;;;;;;5092770;28;20211;-83
2022/12/02 11:16:56;;;;;;;16.20;9.37;;;;;;;;;;5092475;28;20236;-83
2022/12/02 11:19:39;;;;;;;15.10;9.40;;;;;;;;;;5091532;28;20691;-82
2022/12/02 11:22:26;;;;;;;14.53;9.40;;;;;;;;;;5071692;28;20239;-83
2022/12/02 11:24:55;;;;;;;17.10;9.97;;;;;;;;;;5071563;28;20704;-82
2022/12/02 11:27:22;;;;;;;12.90;9.60;;;;;;;;;;5072258;28;20212;-83
2022/12/02 11:30:08;;;;;;;13.20;9.40;;;;;;;;;;5076615;28;20267;-83
2022/12/02 11:32:50;;;;;;;13.57;9.77;;;;;;;;;;5092543;28;20242;-83
2022/12/02 11:35:17;;;;;;;12.43;9.03;;;;;;;;;;5091762;28;20815;-82
2022/12/02 11:37:45;;;;;;;13.13;9.53;;;;;;;;;;5092414;28;20204;-82
2022/12/02 11:40:31;;;;;;;16.13;10.73;;;;;;;;;;5091952;28;20311;-83
2022/12/02 11:43:13;;;;;;;14.90;9.87;;;;;;;;;;5091936;28;20241;-83
2022/12/02 11:45:58;;;;;;;13.33;8.73;;;;;;;;;;5090858;28;20605;-83
2022/12/02 11:48:25;;;;;;;13.33;9.33;;;;;;;;;;5077216;28;20234;-83
2022/12/02 11:50:53;;;;;;;14.97;9.43;;;;;;;;;;5077046;28;20232;-83
2022/12/02 11:53:21;;;;;;;15.17;10.37;;;;;;;;;;5091879;28;20755;-82
2022/12/02 11:55:49;;;;;;;13.40;9.00;;;;;;;;;;5091687;28;20717;-82
2022/12/02 11:58:18;;;;;;;12.13;8.70;;;;;;;;;;5091814;28;20580;-83
2022/12/02 12:03:41;;;;;;;12.40;9.50;;;;;;;;;;5109597;27;20551;-82
2022/12/02 12:06:10;;;;;;;12.87;9.60;;;;;;;;;;5076481;27;20240;-83
2022/12/02 12:08:37;;;;;;;13.13;9.33;;;;;;;;;;5069299;28;20216;-82
2022/12/02 12:11:18;;;;;;;14.27;9.47;;;;;;;;;;5090987;27;20794;-83
2022/12/02 12:14:05;;;;;;;14.87;10.50;;;;;;;;;;5089362;28;20231;-83
2022/12/02 12:16:33;;;;;;;13.77;10.23;;;;;;;;;;5088673;28;20267;-82
2022/12/02 12:19:01;;;;;;;18.90;10.57;;;;;;;;;;5089073;28;20223;-83
2022/12/02 12:21:41;;;;;;;13.63;9.17;;;;;;;;;;5088265;28;20232;-83
2022/12/02 12:24:27;;;;;;;15.40;10.23;;;;;;;;;;5076891;28;20573;-83
2022/12/02 12:26:55;;;;;;;13.33;9.20;;;;;;;;;;5080462;28;20236;-83
2022/12/02 12:29:23;;;;;;;15.67;9.80;;;;;;;;;;5068804;28;20300;-83
2022/12/02 12:31:50;;;;;;;15.13;10.47;;;;;;;;;;5055267;28;20237;-83
2022/12/02 12:34:19;;;;;;;16.10;10.30;;;;;;;;;;5048709;28;20206;-82
2022/12/02 12:36:46;;;;;;;13.60;9.37;;;;;;;;;;5047985;28;20238;-83
2022/12/02 12:39:14;;;;;;;15.27;10.07;;;;;;;;;;5048419;28;20227;-83
2022/12/02 12:41:41;;;;;;;12.93;9.10;;;;;;;;;;5079058;22;20232;-83
2022/12/02 12:44:08;;;;;;;14.17;9.87;;;;;;;;;;5063002;28;20197;-82
2022/12/02 12:46:35;;;;;;;12.67;9.27;;;;;;;;;;5047621;28;20265;-82
2022/12/02 12:49:02;;;;;;;14.83;9.43;;;;;;;;;;5047371;28;20210;-82
2022/12/02 12:51:31;;;;;;;16.30;9.97;;;;;;;;;;5070933;28;20874;-82
2022/12/02 12:53:58;;;;;;;17.07;10.27;;;;;;;;;;5096112;28;20207;-82
2022/12/02 12:56:25;;;;;;;13.00;9.73;;;;;;;;;;5085983;28;20236;-82
2022/12/02 12:58:52;;;;;;;12.03;8.63;;;;;;;;;;5087658;28;20298;-81
2022/12/02 13:01:19;;;;;;;11.90;8.90;;;;;;;;;;5087197;28;20730;-81
2022/12/02 13:03:47;;;;;;;13.97;9.40;;;;;;;;;;5087010;28;20571;-81
2022/12/02 13:06:14;;;;;;;13.23;9.63;;;;;;;;;;5086269;27;20235;-82
2022/12/02 13:08:43;;;;;;;14.43;8.83;;;;;;;;;;5086324;28;20221;-82
2022/12/02 13:11:10;;;;;;;15.00;9.83;;;;;;;;;;5087114;27;20233;-81
2022/12/02 13:13:37;;;;;;;14.97;10.13;;;;;;;;;;5081784;28;20574;-82
2022/12/02 13:16:04;;;;;;;13.60;10.47;;;;;;;;;;5073159;28;20337;-81
2022/12/02 13:18:31;;;;;;;11.43;9.17;;;;;;;;;;5074008;28;20232;-82
2022/12/02 13:20:59;;;;;;;12.57;9.20;;;;;;;;;;5073112;28;20236;-82
2022/12/02 13:23:26;;;;;;;13.23;9.13;;;;;;;;;;5073729;28;20692;-82
2022/12/02 13:25:54;;;;;;;15.40;9.60;;;;;;;;;;5073508;28;20227;-81
2022/12/02 13:28:21;;;;;;;14.57;8.60;;;;;;;;;;5073594;28;20193;-82
2022/12/02 13:30:50;;;;;;;14.13;9.37;;;;;;;;;;5072966;28;20237;-82
2022/12/02 13:33:17;;;;;;;12.17;9.17;;;;;;;;;;5073604;28;20281;-82
2022/12/02 13:35:45;;;;;;;14.77;8.87;;;;;;;;;;5073300;28;20779;-82
2022/12/02 13:38:12;;;;;;;13.20;9.40;;;;;;;;;;5073516;28;20221;-81
2022/12/02 13:40:39;;;;;;;13.30;9.40;;;;;;;;;;5073266;28;20263;-82
2022/12/02 13:43:07;;;;;;;13.83;9.73;;;;;;;;;;5073137;28;20242;-81
2022/12/02 13:45:34;;;;;;;13.70;9.63;;;;;;;;;;5073166;28;20236;-82
2022/12/02 13:48:01;;;;;;;14.83;10.20;;;;;;;;;;5075593;28;20201;-81
2022/12/02 13:50:29;;;;;;;15.53;9.40;;;;;;;;;;5088596;27;20883;-81
2022/12/02 13:52:56;;;;;;;14.50;9.90;;;;;;;;;;5079754;28;20224;-82
2022/12/02 13:55:23;;;;;;;16.97;9.37;;;;;;;;;;5072298;28;20236;-82
2022/12/02 13:57:50;;;;;;;16.87;10.20;;;;;;;;;;5052831;28;20576;-82
2022/12/02 14:00:19;;;;;;;15.37;10.60;;;;;;;;;;5052836;28;20591;-82
2022/12/02 14:02:46;;;;;;;16.17;10.63;;;;;;;;;;5064956;28;20231;-82
2022/12/02 14:05:13;;;;;;;12.87;9.73;;;;;;;;;;5072430;28;20270;-81
2022/12/02 14:07:40;;;;;;;12.80;9.00;;;;;;;;;;5072791;28;20210;-82
2022/12/02 14:10:08;;;;;;;14.57;9.63;;;;;;;;;;5072269;28;20232;-82
2022/12/02 14:12:35;;;;;;;15.47;10.10;;;;;;;;;;5073091;28;20286;-82
2022/12/02 14:15:02;;;;;;;14.47;9.97;;;;;;;;;;5072359;28;20243;-82
2022/12/02 14:17:31;;;;;;;16.20;9.90;;;;;;;;;;5072830;28;20208;-82
2022/12/02 14:19:58;;;;;;;13.97;10.03;;;;;;;;;;5054920;28;20264;-81
2022/12/02 14:22:25;;;;;;;14.33;9.10;;;;;;;;;;5060974;28;20233;-81
2022/12/02 14:24:52;;;;;;;13.97;9.17;;;;;;;;;;5071499;28;20205;-82
2022/12/02 14:27:19;;;;;;;13.37;8.87;;;;;;;;;;5060785;28;20209;-82
2022/12/02 14:29:46;;;;;;;13.37;9.20;;;;;;;;;;5064807;28;20209;-82
2022/12/02 14:32:13;;;;;;;11.10;8.40;;;;;;;;;;5055638;28;20220;-82
2022/12/02 14:34:42;;;;;;;13.40;9.17;;;;;;;;;;5052337;28;20216;-82
2022/12/02 14:37:09;;;;;;;13.43;9.47;;;;;;;;;;5052607;28;20616;-81
2022/12/02 14:39:36;;;;;;;11.73;8.80;;;;;;;;;;5053558;28;20210;-81